createdAt,value
2018-04-28T00:00:15.628Z,18.64
2018-04-28T00:02:44.235Z,18.54
2018-04-28T00:05:12.817Z,18.57
2018-04-28T00:07:41.397Z,18.56
2018-04-28T00:10:09.952Z,18.58
2018-04-28T00:12:38.552Z,18.64
2018-04-28T00:15:07.133Z,18.57
2018-04-28T00:17:35.668Z,18.60
2018-04-28T00:20:04.257Z,18.59
2018-04-28T00:22:35.641Z,18.60
2018-04-28T00:28:35.692Z,18.64
2018-04-28T00:31:17.084Z,18.60
2018-04-28T00:33:46.316Z,18.60
2018-04-28T00:36:14.857Z,18.48
2018-04-28T00:38:47.072Z,18.53
2018-04-28T00:41:15.609Z,18.53
2018-04-28T00:43:44.144Z,18.51
2018-04-28T00:46:23.496Z,18.52
2018-04-28T00:49:13.620Z,18.48
2018-04-28T00:51:42.171Z,18.49
2018-04-28T00:54:17.325Z,18.44
2018-04-28T00:56:57.464Z,18.45
2018-04-28T00:59:29.673Z,18.42
2018-04-28T01:01:59.776Z,18.43
2018-04-28T01:04:42.051Z,18.44
2018-04-28T01:07:18.540Z,18.52
2018-04-28T01:09:58.437Z,18.47
2018-04-28T01:12:27.765Z,18.48
2018-04-28T01:15:17.068Z,18.40
2018-04-28T01:17:52.188Z,18.43
2018-04-28T01:23:18.031Z,18.34
2018-04-28T01:25:47.449Z,18.39
2018-04-28T01:31:28.741Z,18.38
2018-04-28T01:34:04.796Z,18.37
2018-04-28T01:36:37.108Z,18.41
2018-04-28T01:39:08.548Z,18.44
2018-04-28T01:42:00.724Z,18.49
2018-04-28T01:44:34.964Z,18.52
2018-04-28T01:47:10.180Z,18.55
2018-04-28T01:49:45.581Z,18.50
2018-04-28T01:52:14.940Z,18.46
2018-04-28T01:54:50.220Z,18.44
2018-04-28T02:00:13.880Z,18.55
2018-04-28T02:02:50.095Z,18.58
2018-04-28T02:05:22.311Z,18.59
2018-04-28T02:07:50.884Z,18.65
2018-04-28T02:13:27.275Z,18.72
2018-04-28T02:15:55.840Z,18.70
2018-04-28T02:18:36.338Z,18.72
2018-04-28T02:27:17.728Z,18.75
2018-04-28T02:29:52.917Z,18.72
2018-04-28T02:32:21.478Z,18.78
2018-04-28T02:37:57.544Z,18.89
2018-04-28T02:43:26.462Z,18.80
2018-04-28T02:46:00.974Z,18.87
2018-04-28T02:48:34.333Z,18.94
2018-04-28T02:51:04.388Z,18.89
2018-04-28T02:53:44.127Z,18.87
2018-04-28T02:56:15.169Z,18.93
2018-04-28T02:58:55.292Z,18.94
2018-04-28T03:01:30.663Z,18.93
2018-04-28T03:03:59.268Z,18.93
2018-04-28T03:06:44.423Z,18.97
2018-04-28T03:09:13.041Z,18.97
2018-04-28T03:11:44.136Z,18.98
2018-04-28T03:14:15.789Z,19.02
2018-04-28T03:16:45.992Z,19.01
2018-04-28T03:19:14.252Z,18.97
2018-04-28T03:21:48.126Z,19.03
2018-04-28T03:27:15.283Z,19.05
2018-04-28T03:29:49.286Z,19.08
2018-04-28T03:32:17.498Z,19.08
2018-04-28T03:34:46.522Z,19.10
2018-04-28T03:37:22.156Z,19.10
2018-04-28T03:40:12.156Z,19.10
2018-04-28T03:42:57.929Z,19.13
2018-04-28T03:48:30.884Z,19.13
2018-04-28T03:51:19.743Z,19.14
2018-04-28T03:56:59.285Z,19.13
2018-04-28T03:59:39.349Z,19.09
2018-04-28T04:02:19.599Z,19.07
2018-04-28T04:04:54.808Z,19.07
2018-04-28T04:07:44.725Z,19.12
2018-04-28T04:10:13.827Z,19.11
2018-04-28T04:12:46.066Z,19.13
2018-04-28T04:15:23.277Z,19.06
2018-04-28T04:24:13.180Z,19.26
2018-04-28T04:26:56.296Z,19.29
2018-04-28T04:32:28.526Z,19.33
2018-04-28T04:35:20.308Z,19.45
2018-04-28T04:37:55.276Z,19.34
2018-04-28T04:43:40.252Z,19.46
2018-04-28T04:49:26.991Z,19.55
2018-04-28T04:55:13.641Z,19.57
2018-04-28T05:01:09.555Z,19.65
2018-04-28T05:03:43.471Z,19.66
2018-04-28T05:06:26.387Z,19.65
2018-04-28T05:08:56.029Z,19.77
2018-04-28T05:14:31.097Z,19.80
2018-04-28T05:20:18.082Z,19.92
2018-04-28T05:22:49.331Z,19.96
2018-04-28T05:25:29.308Z,20.05
2018-04-28T05:28:00.183Z,20.13
2018-04-28T05:33:53.494Z,20.09
2018-04-28T05:39:49.417Z,20.26
2018-04-28T05:45:34.337Z,20.45
2018-04-28T05:48:14.372Z,20.46
2018-04-28T05:51:04.463Z,20.43
2018-04-28T05:56:57.513Z,20.57
2018-04-28T05:59:36.432Z,20.63
2018-04-28T06:05:26.024Z,20.70
2018-04-28T06:08:03.047Z,20.76
2018-04-28T06:10:32.247Z,20.86
2018-04-28T06:13:06.459Z,20.84
2018-04-28T06:15:38.924Z,20.86
2018-04-28T06:21:13.061Z,21.09
2018-04-28T06:23:41.272Z,21.09
2018-04-28T06:26:09.457Z,21.12
2018-04-28T06:28:37.729Z,21.34
2018-04-28T06:31:05.973Z,21.35
2018-04-28T06:33:34.153Z,21.30
2018-04-28T06:36:02.373Z,21.37
2018-04-28T06:38:30.796Z,21.45
2018-04-28T06:40:59.004Z,21.63
2018-04-28T06:43:27.173Z,21.64
2018-04-28T06:45:55.623Z,21.64
2018-04-28T06:48:23.897Z,21.82
2018-04-28T06:50:52.171Z,21.90
2018-04-28T06:53:20.362Z,21.99
2018-04-28T06:55:48.723Z,21.92
2018-04-28T06:58:16.946Z,22.18
2018-04-28T07:00:45.172Z,22.43
2018-04-28T07:03:13.381Z,22.51
2018-04-28T07:05:41.628Z,22.66
2018-04-28T07:08:09.837Z,22.75
2018-04-28T07:10:38.084Z,22.89
2018-04-28T07:13:06.306Z,23.02
2018-04-28T07:15:34.626Z,23.03
2018-04-28T07:18:02.874Z,23.20
2018-04-28T07:20:31.105Z,23.36
2018-04-28T07:22:59.365Z,23.50
2018-04-28T07:25:27.590Z,23.73
2018-04-28T07:27:55.798Z,23.81
2018-04-28T07:30:24.065Z,23.99
2018-04-28T07:32:52.325Z,23.88
2018-04-28T07:35:20.625Z,24.26
2018-04-28T07:37:48.809Z,24.45
2018-04-28T07:40:17.045Z,24.49
2018-04-28T07:42:45.340Z,24.10
2018-04-28T07:45:13.549Z,24.09
2018-04-28T07:47:41.863Z,23.94
2018-04-28T07:50:10.049Z,24.09
2018-04-28T07:52:38.261Z,24.07
2018-04-28T07:55:06.443Z,24.20
2018-04-28T07:57:34.647Z,24.16
2018-04-28T08:00:02.801Z,24.08
2018-04-28T08:02:31.047Z,24.28
2018-04-28T08:04:59.265Z,24.11
2018-04-28T08:07:27.524Z,24.17
2018-04-28T08:09:55.728Z,24.34
2018-04-28T08:12:23.977Z,24.23
2018-04-28T08:14:52.182Z,24.63
2018-04-28T08:17:20.417Z,24.72
2018-04-28T08:19:48.673Z,24.90
2018-04-28T08:22:16.926Z,24.81
2018-04-28T08:24:45.192Z,24.81
2018-04-28T08:27:13.412Z,24.44
2018-04-28T08:29:41.676Z,24.58
2018-04-28T08:32:09.868Z,24.38
2018-04-28T08:34:38.077Z,24.15
2018-04-28T08:37:06.359Z,24.06
2018-04-28T08:39:34.608Z,24.11
2018-04-28T08:42:02.865Z,24.14
2018-04-28T08:44:31.093Z,24.18
2018-04-28T08:46:59.300Z,24.19
2018-04-28T08:49:27.500Z,24.35
2018-04-28T08:51:55.696Z,24.69
2018-04-28T08:54:23.947Z,24.88
2018-04-28T08:56:52.176Z,24.93
2018-04-28T08:59:20.408Z,24.99
2018-04-28T09:01:48.628Z,24.99
2018-04-28T09:04:16.821Z,24.99
2018-04-28T09:06:45.832Z,25.39
2018-04-28T09:09:14.037Z,25.58
2018-04-28T09:11:42.493Z,25.67
2018-04-28T09:14:11.008Z,25.31
2018-04-28T09:16:39.479Z,25.54
2018-04-28T09:19:07.938Z,25.43
2018-04-28T09:21:36.428Z,25.46
2018-04-28T09:24:05.308Z,25.83
2018-04-28T09:26:33.814Z,25.59
2018-04-28T09:29:02.260Z,25.79
2018-04-28T09:31:30.774Z,25.61
2018-04-28T09:33:59.250Z,25.28
2018-04-28T09:36:27.714Z,25.36
2018-04-28T09:38:56.246Z,25.29
2018-04-28T09:41:24.746Z,24.91
2018-04-28T09:43:53.241Z,25.20
2018-04-28T09:46:21.755Z,25.24
2018-04-28T09:48:50.236Z,25.27
2018-04-28T09:51:18.701Z,25.55
2018-04-28T09:53:47.206Z,25.40
2018-04-28T09:56:15.686Z,25.60
2018-04-28T09:58:44.188Z,25.85
2018-04-28T10:01:18.121Z,25.68
2018-04-28T10:03:46.686Z,25.81
2018-04-28T10:06:15.214Z,26.08
2018-04-28T10:08:43.706Z,26.07
2018-04-28T10:11:12.198Z,26.06
2018-04-28T10:13:40.676Z,25.82
2018-04-28T10:16:09.199Z,25.65
2018-04-28T10:18:38.081Z,25.44
2018-04-28T10:21:06.549Z,25.39
2018-04-28T10:23:35.032Z,25.13
2018-04-28T10:26:03.510Z,25.26
2018-04-28T10:28:32.000Z,25.33
2018-04-28T10:31:00.492Z,25.40
2018-04-28T10:33:28.949Z,25.37
2018-04-28T10:35:57.412Z,25.45
2018-04-28T10:38:25.869Z,25.44
2018-04-28T10:40:54.332Z,25.53
2018-04-28T10:43:22.820Z,25.64
2018-04-28T10:45:51.283Z,25.35
2018-04-28T10:48:19.788Z,25.43
2018-04-28T10:50:48.240Z,25.69
2018-04-28T10:53:16.713Z,25.76
2018-04-28T10:55:45.219Z,25.85
2018-04-28T10:58:13.673Z,25.70
2018-04-28T11:00:42.214Z,25.49
2018-04-28T11:03:10.676Z,25.59
2018-04-28T11:05:39.225Z,25.77
2018-04-28T11:08:07.658Z,25.87
2018-04-28T11:10:36.164Z,26.06
2018-04-28T11:13:04.620Z,26.22
2018-04-28T11:15:33.085Z,26.31
2018-04-28T11:18:01.582Z,26.08
2018-04-28T11:20:30.049Z,26.08
2018-04-28T11:22:58.528Z,26.22
2018-04-28T11:25:27.029Z,26.30
2018-04-28T11:27:55.558Z,26.28
2018-04-28T11:30:24.031Z,26.48
2018-04-28T11:32:52.545Z,26.70
2018-04-28T11:35:21.034Z,26.81
2018-04-28T11:37:49.493Z,26.82
2018-04-28T11:40:18.004Z,26.84
2018-04-28T11:42:46.642Z,26.88
2018-04-28T11:45:15.131Z,26.86
2018-04-28T11:47:43.628Z,26.79
2018-04-28T11:50:12.098Z,26.88
2018-04-28T11:52:40.593Z,26.95
2018-04-28T11:55:09.044Z,26.70
2018-04-28T11:57:37.539Z,26.58
2018-04-28T12:00:06.057Z,26.59
2018-04-28T12:02:34.614Z,26.37
2018-04-28T12:05:03.165Z,26.19
2018-04-28T12:07:31.713Z,26.30
2018-04-28T12:10:00.225Z,26.40
2018-04-28T12:12:28.744Z,26.46
2018-04-28T12:14:57.361Z,26.58
2018-04-28T12:17:25.849Z,26.59
2018-04-28T12:19:54.356Z,26.73
2018-04-28T12:22:22.845Z,26.71
2018-04-28T12:24:51.297Z,26.61
2018-04-28T12:27:19.805Z,26.73
2018-04-28T12:29:48.279Z,26.84
2018-04-28T12:32:16.805Z,26.81
2018-04-28T12:34:45.260Z,26.45
2018-04-28T12:37:13.757Z,26.60
2018-04-28T12:39:42.246Z,26.63
2018-04-28T12:42:10.736Z,26.68
2018-04-28T12:44:39.224Z,26.72
2018-04-28T12:47:07.686Z,26.91
2018-04-28T12:49:36.175Z,27.06
2018-04-28T12:52:04.644Z,27.14
2018-04-28T12:54:33.104Z,27.27
2018-04-28T12:57:01.595Z,27.29
2018-04-28T12:59:30.075Z,27.10
2018-04-28T13:01:58.525Z,27.16
2018-04-28T13:04:27.017Z,27.14
2018-04-28T13:06:55.497Z,27.14
2018-04-28T13:09:23.956Z,26.91
2018-04-28T13:11:52.449Z,26.82
2018-04-28T13:14:20.940Z,26.98
2018-04-28T13:16:49.429Z,27.15
2018-04-28T13:19:17.928Z,27.24
2018-04-28T13:21:46.391Z,27.22
2018-04-28T13:24:14.885Z,27.32
2018-04-28T13:26:43.349Z,27.41
2018-04-28T13:29:11.923Z,27.42
2018-04-28T13:31:40.348Z,27.33
2018-04-28T13:34:08.812Z,27.27
2018-04-28T13:36:37.321Z,27.16
2018-04-28T13:39:05.817Z,27.27
2018-04-28T13:41:34.285Z,27.37
2018-04-28T13:44:02.796Z,27.41
2018-04-28T13:46:31.303Z,27.43
2018-04-28T13:48:59.759Z,27.39
2018-04-28T13:51:28.262Z,27.45
2018-04-28T13:53:56.740Z,27.53
2018-04-28T13:56:25.263Z,27.39
2018-04-28T13:58:53.762Z,27.35
2018-04-28T14:01:22.261Z,27.39
2018-04-28T14:03:50.797Z,27.40
2018-04-28T14:06:19.277Z,27.47
2018-04-28T14:08:47.832Z,27.55
2018-04-28T14:11:16.281Z,27.59
2018-04-28T14:13:44.784Z,27.63
2018-04-28T14:16:13.254Z,27.60
2018-04-28T14:18:41.765Z,27.62
2018-04-28T14:21:10.242Z,27.36
2018-04-28T14:23:38.717Z,27.38
2018-04-28T14:26:07.220Z,27.45
2018-04-28T14:28:35.692Z,27.54
2018-04-28T14:31:04.148Z,27.54
2018-04-28T14:33:32.633Z,27.42
2018-04-28T14:36:01.120Z,27.45
2018-04-28T14:38:29.580Z,27.45
2018-04-28T14:40:58.081Z,27.47
2018-04-28T14:43:26.545Z,27.48
2018-04-28T14:45:55.033Z,27.46
2018-04-28T14:48:23.480Z,27.28
2018-04-28T14:50:51.964Z,27.33
2018-04-28T14:53:20.460Z,27.26
2018-04-28T14:55:48.944Z,27.30
2018-04-28T14:58:17.447Z,27.31
2018-04-28T15:00:45.908Z,27.26
2018-04-28T15:03:14.396Z,27.17
2018-04-28T15:05:42.870Z,27.16
2018-04-28T15:08:11.373Z,27.23
2018-04-28T15:10:39.818Z,27.20
2018-04-28T15:13:08.309Z,27.23
2018-04-28T15:15:36.826Z,27.23
2018-04-28T15:18:05.303Z,27.20
2018-04-28T15:20:33.793Z,27.11
2018-04-28T15:23:02.288Z,27.11
2018-04-28T15:25:30.738Z,27.03
2018-04-28T15:27:59.233Z,27.03
2018-04-28T15:30:27.732Z,27.06
2018-04-28T15:32:56.180Z,27.04
2018-04-28T15:35:24.680Z,27.06
2018-04-28T15:37:53.196Z,27.01
2018-04-28T15:40:21.660Z,27.03
2018-04-28T15:42:50.137Z,26.95
2018-04-28T15:45:18.599Z,26.82
2018-04-28T15:47:47.048Z,26.85
2018-04-28T15:50:15.536Z,26.80
2018-04-28T15:52:44.036Z,26.80
2018-04-28T15:55:12.615Z,26.73
2018-04-28T15:57:41.044Z,26.74
2018-04-28T16:00:09.548Z,26.64
2018-04-28T16:02:38.066Z,26.60
2018-04-28T16:05:06.516Z,26.54
2018-04-28T16:07:34.972Z,26.61
2018-04-28T16:10:03.482Z,26.52
2018-04-28T16:12:31.966Z,26.53
2018-04-28T16:15:00.462Z,26.42
2018-04-28T16:17:28.929Z,26.32
2018-04-28T16:19:57.389Z,26.22
2018-04-28T16:22:25.877Z,26.16
2018-04-28T16:24:54.356Z,26.09
2018-04-28T16:27:22.879Z,26.07
2018-04-28T16:29:51.369Z,25.93
2018-04-28T16:32:19.824Z,25.96
2018-04-28T16:34:48.328Z,25.90
2018-04-28T16:37:16.808Z,25.80
2018-04-28T16:39:45.259Z,25.72
2018-04-28T16:42:13.759Z,25.75
2018-04-28T16:44:42.214Z,25.72
2018-04-28T16:47:10.701Z,25.68
2018-04-28T16:49:39.216Z,25.54
2018-04-28T16:52:07.681Z,25.61
2018-04-28T16:54:36.160Z,25.54
2018-04-28T16:57:04.621Z,25.46
2018-04-28T16:59:33.117Z,25.33
2018-04-28T17:02:01.590Z,25.29
2018-04-28T17:04:30.105Z,25.16
2018-04-28T17:06:58.601Z,25.15
2018-04-28T17:09:27.127Z,25.07
2018-04-28T17:11:55.611Z,24.95
2018-04-28T17:14:24.113Z,24.90
2018-04-28T17:16:52.674Z,24.74
2018-04-28T17:19:21.146Z,24.76
2018-04-28T17:21:49.616Z,24.67
2018-04-28T17:24:18.127Z,24.52
2018-04-28T17:26:46.645Z,24.39
2018-04-28T17:29:15.109Z,24.40
2018-04-28T17:31:43.597Z,24.29
2018-04-28T17:34:12.085Z,24.16
2018-04-28T17:36:40.521Z,24.08
2018-04-28T17:39:09.058Z,24.08
2018-04-28T17:41:37.533Z,24.00
2018-04-28T17:44:06.028Z,23.95
2018-04-28T17:46:34.541Z,23.89
2018-04-28T17:49:03.145Z,23.82
2018-04-28T17:51:31.616Z,23.75
2018-04-28T17:54:00.093Z,23.71
2018-04-28T17:56:28.600Z,23.57
2018-04-28T17:58:57.114Z,23.46
2018-04-28T18:01:25.616Z,23.50
2018-04-28T18:03:54.097Z,23.41
2018-04-28T18:06:22.557Z,23.24
2018-04-28T18:08:51.017Z,23.15
2018-04-28T18:11:19.516Z,23.09
2018-04-28T18:13:47.992Z,23.02
2018-04-28T18:16:16.468Z,22.97
2018-04-28T18:18:44.933Z,22.92
2018-04-28T18:21:13.431Z,22.80
2018-04-28T18:23:41.934Z,22.81
2018-04-28T18:26:10.490Z,22.73
2018-04-28T18:28:38.928Z,22.69
2018-04-28T18:31:07.385Z,22.60
2018-04-28T18:33:35.892Z,22.51
2018-04-28T18:36:05.066Z,22.51
2018-04-28T18:38:33.574Z,22.48
2018-04-28T18:41:02.039Z,22.39
2018-04-28T18:43:30.532Z,22.37
2018-04-28T18:45:59.052Z,22.36
2018-04-28T18:48:27.562Z,22.25
2018-04-28T18:50:56.016Z,22.16
2018-04-28T18:53:24.533Z,22.09
2018-04-28T18:55:53.036Z,21.99
2018-04-28T18:58:21.532Z,21.94
2018-04-28T19:00:49.991Z,21.89
2018-04-28T19:03:18.500Z,21.89
2018-04-28T19:05:47.020Z,21.88
2018-04-28T19:08:15.477Z,21.81
2018-04-28T19:10:43.970Z,21.79
2018-04-28T19:13:12.439Z,21.72
2018-04-28T19:15:40.928Z,21.69
2018-04-28T19:18:09.385Z,21.67
2018-04-28T19:20:37.881Z,21.64
2018-04-28T19:23:06.339Z,21.54
2018-04-28T19:25:34.818Z,21.45
2018-04-28T19:28:03.312Z,21.43
2018-04-28T19:30:31.767Z,21.37
2018-04-28T19:33:00.220Z,21.31
2018-04-28T19:35:28.714Z,21.28
2018-04-28T19:37:57.206Z,21.20
2018-04-28T19:40:25.708Z,21.04
2018-04-28T19:42:54.188Z,20.93
2018-04-28T19:45:22.696Z,20.95
2018-04-28T19:47:51.167Z,20.98
2018-04-28T19:50:19.630Z,20.90
2018-04-28T19:52:48.152Z,20.85
2018-04-28T19:55:16.616Z,20.80
2018-04-28T19:57:45.081Z,20.82
2018-04-28T20:00:14.325Z,20.66
2018-04-28T20:02:42.843Z,20.65
2018-04-28T20:05:11.317Z,20.66
2018-04-28T20:07:39.820Z,20.52
2018-04-28T20:10:08.350Z,20.50
2018-04-28T20:12:36.864Z,20.39
2018-04-28T20:15:05.363Z,20.33
2018-04-28T20:17:33.899Z,20.31
2018-04-28T20:20:02.409Z,20.30
2018-04-28T20:22:42.514Z,20.27
2018-04-28T20:25:24.671Z,20.22
2018-04-28T20:27:53.140Z,20.17
2018-04-28T20:30:21.688Z,20.14
2018-04-28T20:32:50.188Z,20.06
2018-04-28T20:35:18.653Z,19.94
2018-04-28T20:37:47.176Z,19.73
2018-04-28T20:40:15.639Z,19.79
2018-04-28T20:42:44.097Z,19.79
2018-04-28T20:45:12.578Z,19.66
2018-04-28T20:47:41.060Z,19.68
2018-04-28T20:50:09.553Z,19.60
2018-04-28T20:52:38.044Z,19.61
2018-04-28T20:55:06.525Z,19.56
2018-04-28T20:57:34.988Z,19.46
2018-04-28T21:00:03.524Z,19.39
2018-04-28T21:02:31.948Z,19.26
2018-04-28T21:05:00.497Z,19.31
2018-04-28T21:07:28.992Z,19.26
2018-04-28T21:09:57.443Z,19.25
2018-04-28T21:12:25.932Z,19.23
2018-04-28T21:14:54.512Z,19.11
2018-04-28T21:17:23.008Z,19.15
2018-04-28T21:19:51.460Z,19.14
2018-04-28T21:22:19.956Z,19.16
2018-04-28T21:24:48.408Z,19.02
2018-04-28T21:27:16.865Z,19.05
2018-04-28T21:29:45.351Z,18.93
2018-04-28T21:32:13.857Z,18.93
2018-04-28T21:34:42.317Z,18.87
2018-04-28T21:37:10.804Z,18.87
2018-04-28T21:39:39.267Z,18.84
2018-04-28T21:42:07.759Z,18.79
2018-04-28T21:44:36.251Z,18.73
2018-04-28T21:47:04.724Z,18.72
2018-04-28T21:49:33.224Z,18.64
2018-04-28T21:52:01.727Z,18.66
2018-04-28T21:54:30.188Z,18.62
2018-04-28T21:56:58.676Z,18.45
2018-04-28T21:59:27.190Z,18.50
2018-04-28T22:01:55.652Z,18.46
2018-04-28T22:04:24.101Z,18.40
2018-04-28T22:06:52.612Z,18.35
2018-04-28T22:09:21.172Z,18.31
2018-04-28T22:11:49.676Z,18.28
2018-04-28T22:14:18.139Z,18.27
2018-04-28T22:16:46.636Z,18.24
2018-04-28T22:19:15.124Z,18.26
2018-04-28T22:21:43.576Z,18.26
2018-04-28T22:24:12.080Z,18.20
2018-04-28T22:26:40.545Z,18.15
2018-04-28T22:29:08.995Z,18.16
2018-04-28T22:31:38.232Z,18.17
2018-04-28T22:34:06.684Z,18.14
2018-04-28T22:36:35.176Z,18.16
2018-04-28T22:39:03.684Z,18.04
2018-04-28T22:41:32.228Z,17.97
2018-04-28T22:44:00.676Z,18.02
2018-04-28T22:46:29.179Z,17.98
2018-04-28T22:48:57.675Z,17.95
2018-04-28T22:51:26.132Z,17.91
2018-04-28T22:53:54.660Z,17.82
2018-04-28T22:56:23.112Z,17.87
2018-04-28T22:58:51.622Z,17.90
2018-04-28T23:01:20.099Z,17.89
2018-04-28T23:03:48.565Z,17.91
2018-04-28T23:06:17.065Z,17.94
2018-04-28T23:08:45.579Z,17.96
2018-04-28T23:11:14.076Z,18.02
2018-04-28T23:13:42.542Z,18.00
2018-04-28T23:16:11.004Z,17.96
2018-04-28T23:18:39.493Z,18.00
2018-04-28T23:21:07.992Z,18.03
2018-04-28T23:23:36.488Z,17.96
2018-04-28T23:26:04.940Z,17.93
2018-04-28T23:28:33.433Z,17.88
2018-04-28T23:31:01.881Z,17.86
2018-04-28T23:33:30.414Z,17.89
2018-04-28T23:35:58.916Z,17.82
2018-04-28T23:38:27.377Z,17.82
2018-04-28T23:40:55.866Z,17.78
2018-04-28T23:43:24.361Z,17.77
2018-04-28T23:45:52.858Z,17.76
2018-04-28T23:48:21.318Z,17.74
2018-04-28T23:50:49.812Z,17.74
2018-04-28T23:53:18.443Z,17.73
2018-04-28T23:55:46.892Z,17.70
2018-04-28T23:58:15.390Z,17.73
